createdAt,value
2022-11-04T00:04:23.166Z,14.10
2022-11-04T00:09:29.005Z,23.08
2022-11-04T00:19:52.033Z,12.27
2022-11-04T00:25:13.120Z,14.05
2022-11-04T00:30:18.361Z,12.25
2022-11-04T00:35:23.210Z,14.55
2022-11-04T00:40:27.050Z,14.02
2022-11-04T00:45:32.300Z,14.00
2022-11-04T00:50:36.128Z,12.80
2022-11-04T00:55:40.057Z,16.20
2022-11-04T01:00:45.132Z,12.82
2022-11-04T01:05:49.003Z,16.90
2022-11-04T01:10:52.718Z,15.55
2022-11-04T01:15:59.065Z,10.93
2022-11-04T01:21:03.489Z,12.75
2022-11-04T01:26:07.825Z,11.90
2022-11-04T01:31:17.915Z,10.77
2022-11-04T01:36:23.204Z,14.30
2022-11-04T01:41:28.813Z,13.50
2022-11-04T01:46:39.269Z,16.88
2022-11-04T01:51:44.416Z,14.07
2022-11-04T01:56:49.494Z,14.93
2022-11-04T02:01:55.278Z,12.23
2022-11-04T02:07:02.170Z,16.30
2022-11-04T02:12:24.148Z,14.88
2022-11-04T02:17:42.861Z,16.35
2022-11-04T02:23:19.935Z,13.70
2022-11-04T02:28:56.231Z,21.58
2022-11-04T02:34:09.150Z,22.88
2022-11-04T02:39:23.964Z,19.45
2022-11-04T02:44:34.998Z,19.92
2022-11-04T02:49:45.306Z,18.00
2022-11-04T02:54:52.974Z,17.35
2022-11-04T03:00:01.149Z,19.25
2022-11-04T03:05:08.420Z,21.45
2022-11-04T03:10:17.410Z,19.90
2022-11-04T03:15:25.726Z,16.85
2022-11-04T03:20:32.484Z,16.13
2022-11-04T03:25:41.978Z,23.02
2022-11-04T03:30:52.387Z,16.83
2022-11-04T03:35:58.594Z,17.95
2022-11-04T03:41:04.566Z,15.40
2022-11-04T03:46:08.777Z,21.40
2022-11-04T03:51:13.944Z,16.48
2022-11-04T03:56:59.105Z,18.00
2022-11-04T04:02:13.400Z,17.17
2022-11-04T04:07:23.073Z,16.40
2022-11-04T04:12:32.090Z,14.43
2022-11-04T04:17:38.877Z,18.75
2022-11-04T04:22:50.048Z,18.05
2022-11-04T04:27:55.424Z,15.68
2022-11-04T04:33:02.563Z,15.48
2022-11-04T04:38:31.519Z,13.25
2022-11-04T04:43:52.689Z,16.40
2022-11-04T04:48:56.476Z,16.50
2022-11-04T04:54:01.675Z,14.00
2022-11-04T04:59:06.097Z,14.35
2022-11-04T05:04:10.131Z,13.20
2022-11-04T05:09:15.262Z,10.65
2022-11-04T05:14:19.199Z,14.98
2022-11-04T05:19:23.220Z,12.93
2022-11-04T05:24:28.367Z,16.13
2022-11-04T05:29:32.294Z,16.38
2022-11-04T05:34:36.089Z,14.00
2022-11-04T05:39:41.200Z,14.90
2022-11-04T05:44:45.012Z,14.73
2022-11-04T05:49:48.835Z,16.83
2022-11-04T05:54:53.966Z,15.13
2022-11-04T05:59:57.824Z,12.83
2022-11-04T06:05:01.758Z,14.27
2022-11-04T06:10:07.979Z,13.10
2022-11-04T06:15:12.318Z,14.70
2022-11-04T06:20:16.588Z,12.45
2022-11-04T06:25:22.238Z,13.05
2022-11-04T06:30:26.617Z,14.98
2022-11-04T06:35:32.334Z,11.70
2022-11-04T06:40:38.730Z,13.05
2022-11-04T06:45:42.525Z,13.02
2022-11-04T06:50:46.341Z,12.25
2022-11-04T06:55:52.730Z,12.15
2022-11-04T07:00:56.765Z,11.80
2022-11-04T07:06:00.614Z,14.30
2022-11-04T07:11:05.851Z,13.30
2022-11-04T07:16:10.609Z,14.68
2022-11-04T07:21:14.486Z,15.25
2022-11-04T07:26:20.394Z,12.38
2022-11-04T07:31:24.214Z,16.20
2022-11-04T07:36:27.978Z,9.88
2022-11-04T07:41:33.216Z,13.50
2022-11-04T07:46:37.356Z,12.55
2022-11-04T07:51:41.186Z,17.20
2022-11-04T07:56:46.369Z,14.02
2022-11-04T08:01:50.273Z,10.73
2022-11-04T08:06:54.849Z,12.48
2022-11-04T08:12:00.410Z,9.50
2022-11-04T08:17:04.798Z,13.80
2022-11-04T08:22:09.527Z,10.05
2022-11-04T08:27:15.189Z,10.27
2022-11-04T08:32:19.485Z,9.55
2022-11-04T08:37:23.694Z,13.60
2022-11-04T08:42:28.969Z,11.30
2022-11-04T08:47:32.887Z,14.23
2022-11-04T08:52:36.694Z,14.88
2022-11-04T08:57:41.949Z,9.95
2022-11-04T09:02:45.713Z,8.77
2022-11-04T09:07:49.619Z,15.68
2022-11-04T09:12:54.782Z,10.32
2022-11-04T09:17:58.599Z,8.07
2022-11-04T09:23:02.607Z,10.48
2022-11-04T09:28:08.032Z,9.93
2022-11-04T09:33:12.184Z,9.20
2022-11-04T09:38:16.339Z,10.23
2022-11-04T09:43:37.936Z,12.43
2022-11-04T09:48:46.281Z,12.48
2022-11-04T09:53:53.110Z,9.30
2022-11-04T09:58:58.511Z,13.93
2022-11-04T10:04:12.680Z,14.25
2022-11-04T10:09:31.653Z,12.70
2022-11-04T10:15:08.867Z,43.35
2022-11-04T10:20:24.638Z,15.05
2022-11-04T10:25:35.758Z,12.20
2022-11-04T10:30:44.373Z,17.80
2022-11-04T10:35:51.833Z,11.90
2022-11-04T10:41:01.620Z,15.75
2022-11-04T10:46:22.090Z,12.18
2022-11-04T10:51:26.074Z,14.85
2022-11-04T10:56:37.712Z,10.05
2022-11-04T11:01:50.733Z,15.80
2022-11-04T11:06:57.437Z,10.90
2022-11-04T11:12:09.867Z,12.40
2022-11-04T11:17:26.163Z,17.25
2022-11-04T11:22:41.893Z,16.00
2022-11-04T11:27:50.438Z,27.20
2022-11-04T11:32:59.374Z,15.00
2022-11-04T11:38:06.251Z,12.05
2022-11-04T11:43:26.027Z,10.68
2022-11-04T11:48:34.291Z,9.98
2022-11-04T11:53:40.773Z,20.63
2022-11-04T12:15:16.272Z,27.85
2022-11-04T12:21:00.134Z,19.10
2022-11-04T12:26:25.720Z,15.65
2022-11-04T12:31:43.438Z,12.73
2022-11-04T12:37:12.982Z,20.80
2022-11-04T12:42:32.696Z,18.50
2022-11-04T12:47:41.038Z,15.60
2022-11-04T12:53:08.386Z,16.60
2022-11-04T12:58:31.478Z,14.32
2022-11-04T13:03:41.580Z,18.08
2022-11-04T13:08:52.429Z,12.15
2022-11-04T13:14:04.225Z,13.70
2022-11-04T16:01:00.915Z,69.75
2022-11-04T16:06:06.853Z,74.07
2022-11-04T16:11:14.718Z,56.20
2022-11-04T16:16:24.486Z,69.78
2022-11-04T16:21:31.646Z,71.43
2022-11-04T16:26:40.376Z,71.75
2022-11-04T16:31:45.839Z,79.35
2022-11-04T16:36:49.906Z,71.22
2022-11-04T16:41:53.827Z,63.83
2022-11-04T16:46:59.172Z,76.30
2022-11-04T16:52:04.247Z,69.57
2022-11-04T16:57:11.876Z,71.60
2022-11-04T17:02:30.831Z,68.03
2022-11-04T17:07:52.043Z,71.13
2022-11-04T17:12:58.388Z,77.65
2022-11-04T17:18:03.953Z,70.88
2022-11-04T17:23:08.256Z,64.93
2022-11-04T17:28:14.137Z,80.40
2022-11-04T17:33:20.434Z,68.95
2022-11-04T17:38:24.419Z,73.65
2022-11-04T17:43:45.904Z,69.43
2022-11-04T17:48:51.281Z,61.40
2022-11-04T17:53:55.146Z,74.45
2022-11-04T17:59:01.397Z,58.85
2022-11-04T18:04:07.421Z,64.13
2022-11-04T18:09:12.153Z,70.00
2022-11-04T18:14:18.764Z,77.67
2022-11-04T18:19:25.022Z,84.00
2022-11-04T18:24:29.212Z,79.07
2022-11-04T18:29:33.126Z,99.20
2022-11-04T18:34:38.553Z,91.97
2022-11-04T18:39:43.461Z,90.68
2022-11-04T18:44:47.297Z,123.00
2022-11-04T18:49:52.799Z,193.98
2022-11-04T18:54:56.894Z,118.00
2022-11-04T19:00:03.345Z,101.18
2022-11-04T19:05:11.142Z,93.15
2022-11-04T19:10:15.255Z,107.65
2022-11-04T19:15:19.663Z,101.82
2022-11-04T19:20:24.889Z,96.13
2022-11-04T19:25:28.975Z,100.40
2022-11-04T19:30:32.979Z,99.57
2022-11-04T19:35:38.333Z,113.22
2022-11-04T19:40:42.337Z,110.95
2022-11-04T19:45:49.007Z,101.15
2022-11-04T19:50:54.421Z,98.10
2022-11-04T19:55:58.735Z,84.05
2022-11-04T20:01:06.153Z,92.70
2022-11-04T20:06:13.123Z,94.32
2022-11-04T20:11:19.037Z,80.38
2022-11-04T20:21:33.231Z,83.43
2022-11-04T20:26:38.651Z,82.10
2022-11-04T20:31:43.147Z,94.18
2022-11-04T20:36:48.907Z,79.75
2022-11-04T20:41:53.165Z,93.93
2022-11-04T20:46:57.418Z,96.72
2022-11-04T20:52:03.479Z,80.93
2022-11-04T20:57:07.989Z,68.13
2022-11-04T21:02:13.451Z,88.78
2022-11-04T21:07:19.042Z,82.38
2022-11-04T21:12:23.299Z,83.97
2022-11-04T21:17:27.206Z,80.15
2022-11-04T21:22:33.652Z,74.25
2022-11-04T21:27:37.460Z,84.00
2022-11-04T21:32:41.199Z,73.60
2022-11-04T21:37:46.314Z,76.38
2022-11-04T21:42:50.104Z,70.27
2022-11-04T21:47:54.508Z,73.70
2022-11-04T21:53:00.204Z,62.92
2022-11-04T21:58:04.003Z,67.38
2022-11-04T22:03:07.928Z,69.80
2022-11-04T22:08:19.933Z,68.55
2022-11-04T22:13:24.336Z,64.03
2022-11-04T22:18:30.445Z,66.45
2022-11-04T22:23:36.738Z,60.15
2022-11-04T22:28:40.780Z,64.25
2022-11-04T22:33:44.946Z,62.33
2022-11-04T22:38:50.728Z,65.05
2022-11-04T22:43:54.542Z,68.00
2022-11-04T22:48:59.670Z,63.15
2022-11-04T22:54:08.465Z,65.70
2022-11-04T22:59:13.913Z,61.95
2022-11-04T23:04:17.815Z,58.13
2022-11-04T23:09:22.981Z,64.05
2022-11-04T23:14:49.656Z,68.22
2022-11-04T23:19:53.373Z,60.08
2022-11-04T23:25:09.588Z,55.28
2022-11-04T23:30:25.812Z,54.53
2022-11-04T23:35:49.191Z,54.72
2022-11-04T23:41:14.013Z,59.33
2022-11-04T23:46:41.112Z,48.38
2022-11-04T23:52:03.423Z,51.65
2022-11-04T23:57:31.613Z,49.95
